Time;durP1;ratioP1;P1;durP2;ratioP2;P2;SDS_P1;SDS_P2;PMS_P1;PMS_P2;Temp;Humidity;BMP_temperature;BMP_pressure;BME280_temperature;BME280_humidity;BME280_pressure;Samples;Min_cycle;Max_cycle;Signal;HPM_P1;HPM_P2
2022/02/24 00:00:18;;;;;;;150.40;69.60;;;;;;;-1.17;94.18;99822.66;104947;1274;61244;-77
2022/02/24 00:03:04;;;;;;;136.80;61.40;;;;;;;-1.17;94.57;99821.61;104974;1274;61298;-77
2022/02/24 00:05:31;;;;;;;132.00;62.30;;;;;;;-1.16;94.93;99818.30;104978;1274;61262;-78
2022/02/24 00:07:59;;;;;;;136.80;62.90;;;;;;;-1.16;94.93;99816.90;105248;1270;61252;-77
2022/02/24 00:10:26;;;;;;;132.80;62.90;;;;;;;-1.19;94.92;99814.84;105241;1270;68725;-76
2022/02/24 00:12:52;;;;;;;130.00;59.60;;;;;;;-1.25;94.87;99816.79;105216;1270;74200;-76
2022/02/24 00:15:19;;;;;;;118.30;58.90;;;;;;;-1.30;94.93;99815.59;105469;1270;61399;-76
2022/02/24 00:17:46;;;;;;;132.10;60.00;;;;;;;-1.35;95.16;99819.28;105226;1270;61256;-76
2022/02/24 00:20:12;;;;;;;121.70;57.70;;;;;;;-1.40;95.33;99818.08;105255;1270;61345;-76
2022/02/24 00:22:40;;;;;;;121.60;60.60;;;;;;;-1.44;95.50;99811.84;105214;1270;69291;-77
2022/02/24 00:25:08;;;;;;;121.90;60.70;;;;;;;-1.49;95.69;99816.58;105253;1270;72837;-76
2022/02/24 00:27:35;;;;;;;126.80;62.30;;;;;;;-1.52;95.98;99819.20;105224;1270;61290;-77
2022/02/24 00:30:03;;;;;;;117.80;61.60;;;;;;;-1.54;96.15;99815.73;105220;1270;62078;-77
2022/02/24 00:32:30;;;;;;;130.50;62.70;;;;;;;-1.57;96.25;99815.55;105273;1270;75147;-77
2022/02/24 00:34:57;;;;;;;125.30;62.60;;;;;;;-1.56;96.61;99810.16;105225;1270;61364;-77
2022/02/24 00:37:23;;;;;;;118.70;59.10;;;;;;;-1.53;96.92;99805.09;105222;1270;73124;-76
2022/02/24 00:39:50;;;;;;;117.50;61.60;;;;;;;-1.54;96.74;99806.66;105012;1270;61339;-77
2022/02/24 00:42:17;;;;;;;118.40;60.20;;;;;;;-1.59;96.64;99806.50;105201;1270;61373;-77
2022/02/24 00:44:43;;;;;;;129.40;61.30;;;;;;;-1.64;96.65;99808.44;105251;1270;61369;-77
2022/02/24 00:47:10;;;;;;;114.70;60.30;;;;;;;-1.66;97.22;99810.20;105300;1270;61479;-76
2022/02/24 00:49:36;;;;;;;126.20;63.50;;;;;;;-1.65;97.58;99812.46;105233;1270;61273;-77
2022/02/24 00:52:03;;;;;;;131.90;68.80;;;;;;;-1.64;97.80;99811.75;104983;1270;409475;-77
2022/02/24 00:54:30;;;;;;;135.80;76.40;;;;;;;-1.61;98.15;99815.05;105309;1270;61758;-77
2022/02/24 00:56:57;;;;;;;116.00;62.20;;;;;;;-1.59;98.11;99814.34;105279;1270;76154;-75
2022/02/24 00:59:23;;;;;;;107.80;60.20;;;;;;;-1.60;97.92;99814.71;105187;1270;69361;-75
2022/02/24 01:01:50;;;;;;;121.00;64.20;;;;;;;-1.64;97.80;99812.11;105246;1270;61321;-76
2022/02/24 01:04:16;;;;;;;123.90;63.00;;;;;;;-1.68;97.80;99809.86;105170;1270;61317;-76
2022/02/24 01:06:43;;;;;;;119.70;64.00;;;;;;;-1.73;97.87;99807.96;105326;1270;61273;-76
2022/02/24 01:09:09;;;;;;;119.60;66.10;;;;;;;-1.78;97.82;99803.98;105439;1270;76335;-77
2022/02/24 01:11:36;;;;;;;112.90;58.50;;;;;;;-1.85;97.95;99800.16;105415;1270;70789;-77
2022/02/24 01:14:02;;;;;;;118.70;61.50;;;;;;;-1.87;98.01;99800.70;105676;1270;61188;-76
2022/02/24 01:16:29;;;;;;;118.00;63.30;;;;;;;-1.93;98.01;99801.60;106943;1270;60013;-77
2022/02/24 01:18:57;;;;;;;125.30;69.10;;;;;;;-1.98;98.16;99800.39;107322;1270;62004;-75
2022/02/24 01:21:24;;;;;;;126.30;67.80;;;;;;;-2.02;98.31;99805.98;107043;1270;72317;-75
2022/02/24 01:23:50;;;;;;;128.80;72.60;;;;;;;-2.05;98.40;99809.64;107247;1270;68130;-76
2022/02/24 01:26:16;;;;;;;148.60;84.10;;;;;;;-2.06;98.82;99807.20;107265;1270;60008;-76
2022/02/24 01:28:43;;;;;;;130.70;78.70;;;;;;;-2.04;99.28;99805.46;104567;1270;1003204;-76
2022/02/24 01:31:09;;;;;;;128.70;76.60;;;;;;;-2.02;99.44;99808.08;105022;1271;61154;-76
2022/02/24 01:33:36;;;;;;;131.50;74.20;;;;;;;-2.04;99.50;99804.42;105241;1270;76060;-76
2022/02/24 01:36:03;;;;;;;124.70;71.80;;;;;;;-2.05;99.53;99803.55;104981;1270;61410;-75
2022/02/24 01:38:29;;;;;;;121.90;73.90;;;;;;;-2.11;99.49;99798.68;105009;1271;71694;-76
2022/02/24 01:40:56;;;;;;;134.20;76.30;;;;;;;-2.14;99.63;99796.42;105132;1270;61429;-76
2022/02/24 01:43:22;;;;;;;133.10;77.40;;;;;;;-2.15;99.84;99794.34;105061;1270;61296;-76
2022/02/24 01:45:49;;;;;;;132.90;76.50;;;;;;;-2.15;100.00;99791.56;105201;1270;61324;-76
2022/02/24 01:48:16;;;;;;;133.90;75.20;;;;;;;-2.17;100.00;99788.25;105195;1270;69641;-75
2022/02/24 01:50:43;;;;;;;139.00;77.50;;;;;;;-2.17;100.00;99786.52;105191;1270;74683;-76
2022/02/24 01:53:10;;;;;;;131.40;76.20;;;;;;;-2.21;100.00;99783.23;105234;1270;61327;-76
2022/02/24 01:55:37;;;;;;;130.20;74.00;;;;;;;-2.25;100.00;99778.70;105011;1270;62102;-76
2022/02/24 01:58:03;;;;;;;131.10;71.10;;;;;;;-2.29;100.00;99778.38;105240;1270;76547;-75
2022/02/24 02:00:30;;;;;;;121.70;70.10;;;;;;;-2.34;100.00;99775.07;105220;1270;70162;-75
2022/02/24 02:02:56;;;;;;;116.70;63.10;;;;;;;-2.32;100.00;99776.80;105224;1270;61295;-75
2022/02/24 02:05:23;;;;;;;114.40;67.40;;;;;;;-2.32;100.00;99774.02;105250;1270;61315;-76
2022/02/24 02:07:49;;;;;;;115.50;66.20;;;;;;;-2.34;100.00;99777.50;105199;1270;61297;-76
2022/02/24 02:10:16;;;;;;;119.60;69.00;;;;;;;-2.40;100.00;99771.60;105245;1270;61196;-76
2022/02/24 02:12:47;;;;;;;122.30;71.00;;;;;;;-2.46;100.00;99774.91;105240;1270;61302;-75
2022/02/24 02:15:14;;;;;;;131.30;71.20;;;;;;;-2.49;100.00;99774.58;105157;1271;72741;-74
2022/02/24 02:17:40;;;;;;;132.10;70.10;;;;;;;-2.51;100.00;99772.48;105228;1270;61302;-74
2022/02/24 02:20:07;;;;;;;122.30;70.10;;;;;;;-2.49;100.00;99768.49;105249;1269;61247;-75
2022/02/24 02:22:34;;;;;;;117.70;66.50;;;;;;;-2.49;100.00;99762.21;104938;1270;76116;-75
2022/02/24 02:25:03;;;;;;;106.60;66.30;;;;;;;-2.48;100.00;99768.31;105231;1270;69445;-74
2022/02/24 02:27:30;;;;;;;118.20;67.20;;;;;;;-2.51;100.00;99768.48;105187;1270;73150;-74
2022/02/24 02:29:57;;;;;;;116.80;62.80;;;;;;;-2.55;100.00;99770.41;105256;1270;61387;-76
2022/02/24 02:32:25;;;;;;;110.40;61.40;;;;;;;-2.60;100.00;99774.25;105200;1270;61328;-76
2022/02/24 02:34:51;;;;;;;112.60;61.70;;;;;;;-2.66;100.00;99772.69;105239;1270;75413;-76
2022/02/24 02:37:18;;;;;;;117.50;66.30;;;;;;;-2.70;100.00;99773.56;105259;1270;61265;-76
2022/02/24 02:39:45;;;;;;;116.30;67.70;;;;;;;-2.71;100.00;99776.00;105015;1270;73396;-75
2022/02/24 02:42:12;;;;;;;110.90;65.20;;;;;;;-2.72;100.00;99778.95;105301;1270;61312;-76
2022/02/24 02:44:38;;;;;;;121.90;72.30;;;;;;;-2.75;100.00;99774.79;105246;1270;61247;-77
2022/02/24 02:47:05;;;;;;;116.40;69.60;;;;;;;-2.75;100.00;99773.58;105297;1270;61285;-75
2022/02/24 02:49:31;;;;;;;124.50;71.60;;;;;;;-2.77;100.00;99774.27;105252;1270;61179;-76
2022/02/24 02:51:58;;;;;;;121.70;73.10;;;;;;;-2.79;100.00;99773.05;105139;1270;61272;-76
2022/02/24 02:54:24;;;;;;;123.30;71.50;;;;;;;-2.82;100.00;99771.14;105283;1270;61190;-76
2022/02/24 02:56:51;;;;;;;119.70;67.50;;;;;;;-2.86;100.00;99766.98;105338;1270;61366;-75
2022/02/24 02:59:19;;;;;;;112.90;67.50;;;;;;;-2.87;100.00;99766.79;105250;1270;75441;-75
2022/02/24 03:01:52;;;;;;;116.10;71.10;;;;;;;-2.89;100.00;99768.36;105260;1270;68821;-75
2022/02/24 03:04:19;;;;;;;122.10;70.20;;;;;;;-2.92;100.00;99765.58;105222;1270;73344;-74
2022/02/24 03:06:46;;;;;;;117.10;65.30;;;;;;;-2.94;100.00;99761.58;105218;1270;61244;-75
2022/02/24 03:09:12;;;;;;;118.50;67.90;;;;;;;-2.96;100.00;99761.58;104524;1270;1003053;-75
2022/02/24 03:11:39;;;;;;;110.40;65.50;;;;;;;-2.98;100.00;99763.48;105265;1270;61408;-75
2022/02/24 03:14:05;;;;;;;112.60;66.10;;;;;;;-3.00;100.00;99765.73;105254;1269;61312;-76
2022/02/24 03:16:32;;;;;;;119.00;71.10;;;;;;;-3.03;100.00;99766.27;105252;1269;61395;-74
2022/02/24 03:18:58;;;;;;;121.10;68.00;;;;;;;-3.02;100.00;99762.27;105232;1270;61382;-75
2022/02/24 03:21:25;;;;;;;121.40;69.10;;;;;;;-3.02;100.00;99759.15;105222;1270;61351;-75
2022/02/24 03:23:51;;;;;;;112.20;68.80;;;;;;;-3.01;100.00;99756.19;105309;1270;61394;-76
2022/02/24 03:26:18;;;;;;;119.90;69.90;;;;;;;-3.00;100.00;99758.10;105034;1270;61291;-75
2022/02/24 03:28:44;;;;;;;116.20;70.40;;;;;;;-3.01;100.00;99758.27;105186;1269;61298;-75
2022/02/24 03:31:11;;;;;;;110.30;65.80;;;;;;;-3.03;100.00;99751.67;105243;1270;61356;-75
2022/02/24 03:33:37;;;;;;;111.80;64.10;;;;;;;-3.07;100.00;99749.06;105236;1270;61165;-75
2022/02/24 03:36:04;;;;;;;108.90;62.60;;;;;;;-3.11;100.00;99745.58;105292;1270;61675;-75
2022/02/24 03:38:31;;;;;;;106.00;63.60;;;;;;;-3.16;100.00;99740.20;105256;1270;69404;-75
2022/02/24 03:40:58;;;;;;;104.20;63.00;;;;;;;-3.21;100.00;99735.33;105251;1270;74461;-75
2022/02/24 03:43:25;;;;;;;107.50;62.40;;;;;;;-3.26;100.00;99731.85;105262;1270;61404;-75
2022/02/24 03:45:51;;;;;;;112.00;63.20;;;;;;;-3.29;100.00;99731.85;105250;1270;61253;-76
2022/02/24 03:48:17;;;;;;;107.80;63.60;;;;;;;-3.32;100.00;99728.88;105244;1270;61253;-76
2022/02/24 03:50:44;;;;;;;115.80;63.20;;;;;;;-3.35;100.00;99726.80;105251;1270;61318;-76
2022/02/24 03:53:10;;;;;;;103.40;60.80;;;;;;;-3.35;100.00;99721.94;105233;1269;61313;-76
2022/02/24 03:55:37;;;;;;;103.90;62.90;;;;;;;-3.37;100.00;99718.98;105271;1270;61361;-76
2022/02/24 03:58:03;;;;;;;107.70;64.00;;;;;;;-3.40;100.00;99719.15;105272;1270;61280;-76
2022/02/24 04:00:30;;;;;;;107.20;67.70;;;;;;;-3.40;100.00;99715.67;105241;1270;61387;-76
2022/02/24 04:02:56;;;;;;;112.90;67.30;;;;;;;-3.40;100.00;99715.67;105268;1270;61359;-77
2022/02/24 04:05:23;;;;;;;110.60;67.10;;;;;;;-3.41;100.00;99713.07;104967;1271;61419;-76
2022/02/24 04:07:50;;;;;;;109.80;63.90;;;;;;;-3.41;100.00;99708.73;105095;1270;61395;-76
2022/02/24 04:10:16;;;;;;;109.40;66.00;;;;;;;-3.41;100.00;99707.52;105237;1270;61391;-76
2022/02/24 04:12:43;;;;;;;109.80;68.00;;;;;;;-3.41;100.00;99705.77;105254;1270;76554;-76
2022/02/24 04:15:09;;;;;;;118.80;74.80;;;;;;;-3.41;100.00;99707.85;105235;1270;61289;-76
2022/02/24 04:17:36;;;;;;;114.10;69.60;;;;;;;-3.40;100.00;99712.20;105204;1270;61352;-75
2022/02/24 04:20:02;;;;;;;115.10;69.60;;;;;;;-3.40;100.00;99708.89;105270;1269;61312;-76
2022/02/24 04:22:29;;;;;;;105.50;66.30;;;;;;;-3.42;100.00;99707.87;105272;1270;61185;-76
2022/02/24 04:24:58;;;;;;;112.70;67.70;;;;;;;-3.42;100.00;99702.80;105285;1270;75536;-76
2022/02/24 04:27:24;;;;;;;108.90;68.20;;;;;;;-3.41;100.00;99698.83;105263;1270;69168;-75
2022/02/24 04:29:51;;;;;;;115.00;70.80;;;;;;;-3.41;100.00;99699.86;105182;1270;61352;-76
2022/02/24 04:32:17;;;;;;;108.20;67.60;;;;;;;-3.40;100.00;99693.95;105258;1270;69707;-76
2022/02/24 04:34:44;;;;;;;99.80;62.90;;;;;;;-3.40;100.00;99691.70;104546;1270;1003589;-76
2022/02/24 04:37:10;;;;;;;99.90;61.50;;;;;;;-3.40;100.00;99689.61;105266;1269;61355;-76
2022/02/24 04:39:37;;;;;;;96.80;59.90;;;;;;;-3.35;100.00;99689.09;105301;1270;61292;-76
2022/02/24 04:42:04;;;;;;;94.10;58.90;;;;;;;-3.32;100.00;99686.67;105276;1270;61363;-77
2022/02/24 04:44:30;;;;;;;85.00;56.20;;;;;;;-3.29;100.00;99685.27;105232;1270;61361;-76
2022/02/24 04:46:57;;;;;;;103.30;65.10;;;;;;;-3.24;100.00;99681.80;105177;1270;61273;-78
2022/02/24 04:49:23;;;;;;;96.40;58.20;;;;;;;-3.23;100.00;99680.59;105261;1269;74893;-77
2022/02/24 04:51:50;;;;;;;91.10;58.80;;;;;;;-3.27;100.00;99677.45;105132;1270;61418;-75
2022/02/24 04:54:16;;;;;;;97.80;61.00;;;;;;;-3.29;100.00;99678.16;105277;1270;61396;-75
2022/02/24 04:56:43;;;;;;;86.80;55.50;;;;;;;-3.34;100.00;99676.06;105285;1270;61366;-74
2022/02/24 04:59:09;;;;;;;97.50;62.10;;;;;;;-3.39;100.00;99676.59;105281;1270;61277;-75
2022/02/24 05:01:35;;;;;;;98.10;63.40;;;;;;;-3.42;100.00;99674.85;105261;1270;61374;-73
2022/02/24 05:04:02;;;;;;;99.90;64.10;;;;;;;-3.44;100.00;99677.27;105283;1270;61431;-76
2022/02/24 05:06:28;;;;;;;89.70;58.00;;;;;;;-3.42;100.00;99678.33;105235;1270;61436;-76
2022/02/24 05:08:56;;;;;;;89.00;57.20;;;;;;;-3.39;100.00;99676.76;105218;1270;61365;-76
2022/02/24 05:11:22;;;;;;;88.00;55.90;;;;;;;-3.36;100.00;99675.55;105252;1270;61885;-76
2022/02/24 05:13:48;;;;;;;86.80;56.90;;;;;;;-3.37;100.00;99672.60;105216;1270;61207;-76
2022/02/24 05:16:15;;;;;;;85.60;55.60;;;;;;;-3.37;100.00;99672.06;105251;1270;61270;-76
2022/02/24 05:18:41;;;;;;;88.30;57.40;;;;;;;-3.39;100.00;99669.12;105101;1270;61355;-76
2022/02/24 05:21:08;;;;;;;83.60;56.30;;;;;;;-3.41;100.00;99669.98;105215;1270;61276;-76
2022/02/24 05:23:37;;;;;;;102.40;63.40;;;;;;;-3.43;100.00;99671.89;105256;1270;61157;-76
2022/02/24 05:26:03;;;;;;;94.00;64.10;;;;;;;-3.44;100.00;99678.15;105303;1270;75127;-76
2022/02/24 05:28:30;;;;;;;101.00;64.40;;;;;;;-3.46;100.00;99679.54;105302;1270;69181;-76
2022/02/24 05:30:59;;;;;;;86.30;58.20;;;;;;;-3.44;100.00;99679.02;105247;1267;61187;-75
2022/02/24 05:33:30;;;;;;;90.30;57.90;;;;;;;-3.43;100.00;99683.36;105262;1270;61337;-75
2022/02/24 05:35:57;;;;;;;106.10;61.20;;;;;;;-3.43;100.00;99682.31;105267;1270;61480;-76
2022/02/24 05:38:24;;;;;;;90.40;61.00;;;;;;;-3.43;100.00;99676.58;104573;1270;1003039;-74
2022/02/24 05:40:50;;;;;;;94.80;61.60;;;;;;;-3.42;100.00;99675.37;105267;1270;69457;-77
2022/02/24 05:43:17;;;;;;;106.40;66.30;;;;;;;-3.44;100.00;99676.24;105253;1270;73690;-76
2022/02/24 05:45:44;;;;;;;99.60;67.90;;;;;;;-3.44;100.00;99673.64;105090;1270;61341;-76
2022/02/24 05:48:12;;;;;;;99.90;62.40;;;;;;;-3.43;100.00;99668.59;105262;1270;61311;-77
2022/02/24 05:50:39;;;;;;;97.60;63.80;;;;;;;-3.41;100.00;99670.52;105442;1270;75239;-78
2022/02/24 05:53:06;;;;;;;100.80;69.10;;;;;;;-3.39;100.00;99670.16;105317;1270;70921;-75
2022/02/24 05:55:33;;;;;;;101.90;67.30;;;;;;;-3.36;100.00;99669.64;105248;1270;73375;-76
2022/02/24 05:58:00;;;;;;;93.40;62.20;;;;;;;-3.31;100.00;99666.00;104538;1270;1016411;-76
2022/02/24 06:00:27;;;;;;;98.60;61.40;;;;;;;-3.23;100.00;99664.77;105305;1270;61206;-75
2022/02/24 06:02:53;;;;;;;98.20;62.00;;;;;;;-3.14;100.00;99663.89;105261;1270;76379;-74
2022/02/24 06:05:21;;;;;;;84.20;57.90;;;;;;;-3.06;100.00;99665.78;105257;1270;69141;-74
2022/02/24 06:07:47;;;;;;;109.60;72.10;;;;;;;-3.02;100.00;99666.14;105391;1270;74319;-76
2022/02/24 06:10:14;;;;;;;109.20;76.20;;;;;;;-2.97;100.00;99667.70;105214;1270;61360;-75
2022/02/24 06:12:41;;;;;;;113.70;70.80;;;;;;;-2.93;100.00;99661.78;105304;1270;61872;-75
2022/02/24 06:15:09;;;;;;;98.40;66.20;;;;;;;-2.88;100.00;99658.64;105269;1270;75864;-77
2022/02/24 06:17:36;;;;;;;100.50;68.40;;;;;;;-2.82;100.00;99656.36;105149;1272;69398;-74
2022/02/24 06:20:04;;;;;;;97.20;69.20;;;;;;;-2.77;100.00;99659.15;105234;1270;74322;-77
2022/02/24 06:22:31;;;;;;;105.40;71.00;;;;;;;-2.72;100.00;99656.52;105281;1270;61266;-74
2022/02/24 06:24:57;;;;;;;101.80;70.40;;;;;;;-2.67;100.00;99654.23;105245;1270;61384;-75
2022/02/24 06:27:24;;;;;;;101.10;69.50;;;;;;;-2.61;100.00;99647.96;102305;1270;2003418;-75
2022/02/24 06:29:51;;;;;;;105.80;73.90;;;;;;;-2.55;100.00;99646.90;105274;1270;61256;-75
2022/02/24 06:32:17;;;;;;;93.70;65.00;;;;;;;-2.50;100.00;99644.63;105135;1270;61383;-73
2022/02/24 06:34:44;;;;;;;86.20;60.10;;;;;;;-2.42;100.00;99641.64;105235;1270;61384;-75
2022/02/24 06:37:10;;;;;;;86.30;60.30;;;;;;;-2.30;100.00;99639.49;105237;1270;61437;-76
2022/02/24 06:39:37;;;;;;;78.60;54.60;;;;;;;-2.16;100.00;99633.85;105243;1270;61397;-75
2022/02/24 06:42:04;;;;;;;79.90;55.60;;;;;;;-2.00;100.00;99628.89;105253;1269;61212;-75
2022/02/24 06:44:31;;;;;;;72.90;50.00;;;;;;;-1.86;100.00;99627.58;105423;1270;73244;-76
2022/02/24 06:46:57;;;;;;;80.00;53.60;;;;;;;-1.72;100.00;99622.61;105249;1270;61378;-77
2022/02/24 06:49:24;;;;;;;75.40;52.70;;;;;;;-1.58;100.00;99619.89;105271;1270;61152;-76
2022/02/24 06:51:53;;;;;;;75.30;48.80;;;;;;;-1.45;100.00;99611.77;105249;1269;61170;-76
2022/02/24 06:54:19;;;;;;;78.30;52.10;;;;;;;-1.32;100.00;99608.17;105120;1270;68234;-75
2022/02/24 06:56:46;;;;;;;79.30;51.90;;;;;;;-1.21;100.00;99605.82;105277;1270;61280;-74
2022/02/24 06:59:13;;;;;;;75.30;51.40;;;;;;;-1.10;100.00;99611.63;105230;1270;61165;-75
2022/02/24 07:01:39;;;;;;;73.40;48.70;;;;;;;-1.01;100.00;99607.36;104962;1270;61369;-76
2022/02/24 07:04:06;;;;;;;70.40;47.80;;;;;;;-0.94;100.00;99604.48;105282;1268;61382;-77
2022/02/24 07:06:32;;;;;;;78.10;51.20;;;;;;;-0.84;100.00;99603.34;105256;1270;61174;-76
2022/02/24 07:08:59;;;;;;;79.10;50.10;;;;;;;-0.77;100.00;99598.37;105257;1270;61350;-75
2022/02/24 07:11:26;;;;;;;77.20;49.70;;;;;;;-0.68;100.00;99593.21;105249;1269;61261;-76
2022/02/24 07:13:53;;;;;;;77.40;49.10;;;;;;;-0.58;100.00;99598.84;105233;1270;61197;-76
2022/02/24 07:16:20;;;;;;;81.70;51.80;;;;;;;-0.49;100.00;99597.16;105236;1270;61361;-76
2022/02/24 07:18:47;;;;;;;84.50;52.80;;;;;;;-0.39;100.00;99592.51;104961;1271;68798;-78
2022/02/24 07:21:13;;;;;;;78.10;52.10;;;;;;;-0.29;100.00;99588.00;105265;1270;73232;-76
2022/02/24 07:23:40;;;;;;;81.40;52.80;;;;;;;-0.18;100.00;99584.38;105251;1270;61259;-75
2022/02/24 07:26:07;;;;;;;77.90;52.80;;;;;;;-0.08;100.00;99582.65;105256;1270;61240;-75
2022/02/24 07:28:36;;;;;;;80.10;52.80;;;;;;;0.03;100.00;99581.45;105271;1270;76168;-75
2022/02/24 07:31:02;;;;;;;85.50;51.20;;;;;;;0.13;100.00;99576.23;105549;1270;68655;-75
2022/02/24 07:33:29;;;;;;;77.00;48.90;;;;;;;0.24;100.00;99576.40;105245;1270;61334;-75
2022/02/24 07:35:55;;;;;;;74.40;47.80;;;;;;;0.35;100.00;99577.45;105281;1270;61299;-75
2022/02/24 07:38:22;;;;;;;78.10;48.40;;;;;;;0.46;100.00;99577.46;105298;1270;61324;-74
2022/02/24 07:40:48;;;;;;;79.80;50.00;;;;;;;0.56;100.00;99577.27;105282;1270;61358;-75
2022/02/24 07:43:15;;;;;;;78.10;48.40;;;;;;;0.68;100.00;99575.15;105281;1270;61570;-75
2022/02/24 07:45:41;;;;;;;70.60;48.20;;;;;;;0.80;100.00;99573.37;105276;1269;61497;-75
2022/02/24 07:48:08;;;;;;;68.90;44.90;;;;;;;0.91;100.00;99568.63;105240;1270;61375;-75
2022/02/24 07:50:35;;;;;;;65.70;43.00;;;;;;;1.00;100.00;99565.30;105259;1270;61256;-74
2022/02/24 07:53:02;;;;;;;67.30;44.20;;;;;;;1.10;100.00;99563.88;105295;1270;75237;-76
2022/02/24 07:55:29;;;;;;;66.40;42.10;;;;;;;1.22;100.00;99555.44;105417;1270;69954;-76
2022/02/24 07:57:56;;;;;;;69.40;42.40;;;;;;;1.32;100.00;99554.18;105353;1270;73009;-76
2022/02/24 08:00:22;;;;;;;66.10;43.40;;;;;;;1.42;100.00;99544.69;105345;1270;61394;-76
2022/02/24 08:02:51;;;;;;;61.10;38.60;;;;;;;1.52;100.00;99546.40;105306;1270;61275;-74
2022/02/24 08:05:18;;;;;;;57.00;38.40;;;;;;;1.63;100.00;99538.11;105335;1270;75183;-75
2022/02/24 08:07:44;;;;;;;64.80;39.10;;;;;;;1.73;100.00;99531.77;105393;1270;61176;-76
2022/02/24 08:10:11;;;;;;;67.60;40.40;;;;;;;1.82;100.00;99528.73;105443;1269;61234;-74
2022/02/24 08:12:39;;;;;;;59.60;42.20;;;;;;;1.92;100.00;99522.75;105849;1270;61324;-74
2022/02/24 08:15:18;;;;;;;75.30;46.80;;;;;;;2.03;100.00;99522.48;105866;1270;61628;-76
2022/02/24 08:17:46;;;;;;;63.20;40.80;;;;;;;2.13;100.00;99516.61;105978;1270;75251;-75
2022/02/24 08:20:13;;;;;;;65.90;44.70;;;;;;;2.24;100.00;99513.91;105743;1270;69269;-76
2022/02/24 08:22:46;;;;;;;63.50;40.90;;;;;;;2.35;100.00;99509.42;106738;1269;73181;-78
2022/02/24 08:25:14;;;;;;;59.10;35.90;;;;;;;2.47;100.00;99502.81;106470;1270;61228;-78
2022/02/24 08:27:41;;;;;;;52.30;31.10;;;;;;;2.58;100.00;99498.15;107195;1270;60919;-76
2022/02/24 08:30:12;;;;;;;47.50;26.80;;;;;;;2.69;100.00;99496.80;108462;1270;75074;-74
2022/02/24 08:32:41;;;;;;;46.30;29.50;;;;;;;2.83;100.00;99487.83;108451;1270;69214;-76
2022/02/24 08:35:10;;;;;;;43.60;27.00;;;;;;;2.97;100.00;99484.11;108397;1269;73511;-75
2022/02/24 08:37:37;;;;;;;47.50;29.00;;;;;;;3.09;100.00;99477.09;108308;1270;61299;-74
2022/02/24 08:40:06;;;;;;;47.80;29.60;;;;;;;3.19;100.00;99470.46;106945;1270;61219;-74
2022/02/24 08:42:32;;;;;;;40.40;23.40;;;;;;;3.32;100.00;99465.70;105792;1270;76190;-76
2022/02/24 08:44:59;;;;;;;42.70;23.10;;;;;;;3.43;100.00;99461.69;105288;1270;70366;-76
2022/02/24 08:47:26;;;;;;;41.60;24.60;;;;;;;3.50;100.00;99459.52;105290;1270;61382;-76
2022/02/24 08:49:52;;;;;;;40.10;25.60;;;;;;;3.59;100.00;99457.85;105323;1270;61335;-77
2022/02/24 08:52:19;;;;;;;29.50;19.50;;;;;;;3.68;100.00;99450.70;105306;1270;61382;-76
2022/02/24 08:54:46;;;;;;;29.20;18.80;;;;;;;3.78;100.00;99445.48;105300;1270;61186;-76
2022/02/24 08:57:13;;;;;;;29.30;18.90;;;;;;;3.87;100.00;99441.14;105260;1270;70377;-77
2022/02/24 08:59:40;;;;;;;30.40;17.60;;;;;;;3.97;100.00;99434.84;105234;1271;71348;-76
2022/02/24 09:02:07;;;;;;;28.20;17.60;;;;;;;4.05;99.23;99425.10;105233;1270;61237;-77
2022/02/24 09:04:33;;;;;;;26.00;16.40;;;;;;;4.11;99.21;99421.88;105015;1270;61293;-76
2022/02/24 09:07:00;;;;;;;25.00;16.10;;;;;;;4.20;98.97;99415.27;105289;1270;61300;-76
2022/02/24 09:09:27;;;;;;;25.50;15.20;;;;;;;4.27;98.30;99407.45;105290;1270;69139;-76
2022/02/24 09:11:53;;;;;;;22.10;15.10;;;;;;;4.33;97.16;99402.13;105277;1270;61148;-76
2022/02/24 09:14:21;;;;;;;25.20;15.90;;;;;;;4.41;97.63;99397.46;105277;1270;61330;-75
2022/02/24 09:16:47;;;;;;;23.60;13.60;;;;;;;4.53;97.51;99390.36;104722;1270;61302;-76
2022/02/24 09:19:14;;;;;;;22.50;14.90;;;;;;;4.62;96.81;99384.56;105286;1270;61314;-76
2022/02/24 09:21:41;;;;;;;22.00;12.30;;;;;;;4.71;96.60;99372.79;105298;1270;61299;-76
2022/02/24 09:24:08;;;;;;;25.50;12.40;;;;;;;4.79;95.75;99365.11;105273;1270;74270;-76
2022/02/24 09:26:34;;;;;;;21.40;12.30;;;;;;;4.87;95.20;99360.77;105270;1270;61270;-76
2022/02/24 09:29:01;;;;;;;18.90;11.40;;;;;;;4.95;94.31;99358.38;104958;1270;61374;-76
2022/02/24 09:31:27;;;;;;;21.50;13.30;;;;;;;5.04;94.42;99358.00;105297;1270;75328;-76
2022/02/24 09:33:54;;;;;;;23.80;12.70;;;;;;;5.13;93.56;99354.50;105259;1270;61253;-76
2022/02/24 09:36:20;;;;;;;21.60;14.10;;;;;;;5.20;93.02;99350.50;105272;1270;61414;-76
2022/02/24 09:38:47;;;;;;;30.40;16.30;;;;;;;5.29;93.16;99347.52;105206;1270;61352;-77
2022/02/24 09:41:14;;;;;;;25.50;15.00;;;;;;;5.40;93.71;99343.70;105297;1270;61760;-76
2022/02/24 09:43:41;;;;;;;29.50;15.00;;;;;;;5.51;92.30;99339.05;105266;1270;76122;-75
2022/02/24 09:46:11;;;;;;;24.60;14.80;;;;;;;5.57;92.49;99335.98;105228;1270;69113;-76
2022/02/24 09:48:42;;;;;;;28.90;15.00;;;;;;;5.65;91.92;99337.75;105198;1270;74414;-76
2022/02/24 09:51:11;;;;;;;23.80;15.50;;;;;;;5.71;91.22;99326.61;105242;1270;61295;-75
2022/02/24 09:53:38;;;;;;;26.00;14.90;;;;;;;5.77;91.45;99322.09;105528;1269;61963;-76
2022/02/24 09:56:06;;;;;;;26.00;15.20;;;;;;;5.87;91.12;99320.46;105230;1270;76755;-76
2022/02/24 09:58:32;;;;;;;29.10;16.60;;;;;;;5.95;90.30;99323.86;105333;1270;69390;-76
2022/02/24 10:01:02;;;;;;;26.30;15.40;;;;;;;6.01;90.15;99317.23;105251;1270;73414;-76
2022/02/24 10:03:30;;;;;;;26.30;15.70;;;;;;;6.10;90.03;99317.02;105225;1270;61334;-76
2022/02/24 10:05:58;;;;;;;26.50;14.80;;;;;;;6.19;88.56;99313.64;105257;1269;61286;-76
2022/02/24 10:08:32;;;;;;;27.30;15.70;;;;;;;6.23;88.11;99308.34;105266;1270;75125;-80
2022/02/24 10:11:01;;;;;;;24.10;14.70;;;;;;;6.30;88.71;99299.20;105299;1270;69457;-78
2022/02/24 10:13:29;;;;;;;23.50;14.60;;;;;;;6.47;88.96;99292.45;105394;1270;73682;-75
2022/02/24 10:16:02;;;;;;;24.10;14.80;;;;;;;6.61;88.43;99283.69;105245;1270;61254;-76
2022/02/24 10:18:33;;;;;;;25.30;14.70;;;;;;;6.71;87.91;99279.69;105270;1270;61299;-76
2022/02/24 10:21:04;;;;;;;23.50;13.00;;;;;;;6.79;87.20;99275.25;105279;1270;76179;-74
2022/02/24 10:23:39;;;;;;;21.70;13.20;;;;;;;6.86;86.90;99265.58;105491;1270;70394;-75
2022/02/24 10:26:11;;;;;;;22.40;13.20;;;;;;;6.95;86.27;99255.63;105241;1270;74927;-76
2022/02/24 10:28:49;;;;;;;23.10;12.80;;;;;;;7.06;86.35;99248.38;105269;1270;61367;-76
2022/02/24 10:31:21;;;;;;;22.10;12.40;;;;;;;7.19;85.36;99242.45;105270;1270;61256;-76
2022/02/24 10:34:10;;;;;;;21.80;12.60;;;;;;;7.27;84.44;99233.75;105028;1270;75261;-76
2022/02/24 10:36:38;;;;;;;20.40;12.10;;;;;;;7.40;84.90;99229.93;105233;1270;70130;-75
2022/02/24 10:39:22;;;;;;;16.80;11.20;;;;;;;7.54;84.68;99230.45;105333;1269;72675;-77
2022/02/24 10:41:50;;;;;;;18.50;10.70;;;;;;;7.64;82.22;99228.36;105239;1270;61301;-75
2022/02/24 10:44:20;;;;;;;20.10;11.60;;;;;;;7.68;82.57;99225.31;104944;1270;61356;-76
2022/02/24 10:47:07;;;;;;;20.10;11.20;;;;;;;7.74;82.39;99221.84;105259;1270;76133;-78
2022/02/24 10:49:37;;;;;;;20.00;12.10;;;;;;;7.85;82.58;99220.35;105153;1271;69615;-77
2022/02/24 10:52:11;;;;;;;;;;;;;;;7.93;82.16;99221.15;105303;1270;74593;-79
2022/02/24 10:54:39;;;;;;;14.40;8.60;;;;;;;8.02;81.46;99216.45;105275;1270;61249;-76
2022/02/24 10:57:20;;;;;;;17.60;9.70;;;;;;;8.07;80.17;99216.88;105257;1270;61250;-77
2022/02/24 10:59:48;;;;;;;18.80;10.20;;;;;;;8.15;80.86;99211.70;105444;1270;74649;-77
2022/02/24 11:02:14;;;;;;;18.50;10.70;;;;;;;8.23;80.67;99206.33;105273;1270;69431;-76